Weather observations for the past three days for
Milwaukee-Timmerman
Metric (Imperial)
Date Time (cdt) Wind (kph) Vis. (km) Weather Sky Cond. Temperature (ºC) Relative Humidity Wind Chill (°C) Heat Index (°C) Pressure Precipitation (cm)
Air Dwpt 6 hour altimeter (cm) sea level (mb) 1 hr 3 hr 6 hr
Max. Min.
08 07:35 Calm 16.09 Fair CLR 6 1 71% 75.84 0.0
08 07:15 Calm 16.09 Fair CLR 3 1 87% 75.87 0.0
08 06:55 Calm 16.09 Fair CLR 1 0 93% 75.84 0.0
08 06:35 Calm 16.09 Fair CLR 0 -1 93% 75.84 0.0
08 06:15 Calm 16.09 Fair CLR 0 -1 93% 75.84 0.0
08 05:55 Calm 16.09 Fair CLR 0 -1 93% 75.84 0.0
08 05:35 Calm 16.09 Fair CLR 0 -1 93% 75.84 0.0
08 05:15 Calm 16.09 Fair CLR 0 -1 93% 75.84 0.0
08 04:55 Calm 16.09 Fair CLR 0 -2 87% 75.84 0.0
08 04:35 Calm 16.09 Fair CLR 0 -1 93% 75.84 0.0
08 04:15 Calm 16.09 Fair CLR 0 -2 87% 75.87 0.0
08 03:55 Calm 16.09 Fair CLR 0 -1 93% 75.87 0.0
08 03:40 Calm 16.09 Fair CLR 0 -2 87% 75.87 0.0
08 03:15 Calm 16.09 Fair CLR 1 -1 87% 75.9 0.0
08 02:55 Calm 16.09 Fair CLR 0 -2 87% 75.9 0.0
08 02:35 Calm 16.09 Fair CLR 1 -1 87% 75.92 0.0
08 02:15 Calm 16.09 Fair CLR 1 -1 87% 75.92 0.0
08 01:55 Calm 16.09 Fair CLR 1 -1 87% 75.92 0.0
08 01:35 Calm 16.09 Fair CLR 1 -1 87% 75.95 0.0
08 01:15 Calm 16.09 Fair CLR 1 -1 87% 75.95 0.0
08 00:55 Calm 16.09 Fair CLR 1 -1 87% 75.95 0.0
08 00:35 Calm 16.09 Fair CLR 1 -1 87% 75.95 0.0
08 00:15 Calm 16.09 Fair CLR 2 -1 81% 75.97 0.0
07 23:55 Calm 16.09 Fair CLR 2 -1 81% 75.97 0.0
07 23:35 Calm 16.09 Fair CLR 3 -1 75% 75.97 0.0
07 23:15 Calm 16.09 Fair CLR 3 -1 75% 75.95 0.0
07 22:55 Calm 16.09 Fair CLR 2 -1 81% 75.95 0.0
07 22:35 Calm 16.09 Fair CLR 4 -1 70% 75.92 0.0
07 22:15 Calm 16.09 Fair CLR 5 -1 66% 75.92 0.0
07 21:55 Calm 16.09 Fair CLR 5 -1 66% 75.92 0.0
07 21:35 Calm 16.09 Fair CLR 5 -1 66% 75.92 0.0
07 21:15 Calm 16.09 Fair CLR 5 -1 66% 75.9 0.0
07 20:55 Calm 16.09 Fair CLR 5 -1 66% 75.84 0.0
07 20:35 Calm 16.09 Fair CLR 2 -4 65% 75.84 0.0
07 20:15 Calm 16.09 Fair CLR -7 -18 42% 75.84 0.0
07 19:55 SE 9 16.09 Fair CLR -5 -16 42% -9 75.84 0.0
07 19:35 SE 6 16.09 Fair CLR -3 -15 39% 75.82 0.0
07 19:15 SE 13 16.09 Fair CLR -2 -13 43% -6 75.82 0.0
07 18:55 E 15 16.09 Fair CLR -1 -13 40% -5 75.82 0.0
07 18:35 SE 15 16.09 Fair CLR -1 -13 40% -5 75.79 0.0
07 18:15 SE 17 16.09 Fair CLR -1 -13 40% -6 75.79 0.0
07 17:55 E 17 16.09 Fair CLR 0 -12 40% -4 75.82 0.0
07 17:35 E 17 16.09 Fair CLR 0 -13 37% -4 75.82 0.0
07 17:15 E 17 16.09 Partly Cloudy SCT090 0 -13 37% -4 75.82 0.0
07 16:55 E 11 16.09 Partly Cloudy SCT060 SCT070 SCT090 0 -12 40% -3 75.82 0.0
07 16:35 E 15 16.09 Overcast SCT050 BKN070 OVC090 0 -13 37% -4 75.82 0.0
07 16:15 SE 15 16.09 Mostly Cloudy SCT070 BKN090 BKN110 0 -12 40% -4 75.82 0.0
07 15:55 E 20 G 28 16.09 Partly Cloudy SCT110 0 -11 44% -5 75.82 0.0
07 15:35 SE 22 16.09 Fair CLR 0 -10 47% -5 75.82 0.0
07 15:15 SE 17 16.09 Partly Cloudy SCT060 SCT100 1 -11 41% -3 75.84 0.0
07 14:55 SE 19 16.09 Mostly Cloudy SCT035 SCT046 BKN065 0 -11 44% -5 75.9 0.0
07 14:35 E 24 16.09 Light Drizzle SCT037 BKN048 OVC080 0 -11 44% -5 75.9 0.0
07 14:15 SE 20 G 28 16.09 Overcast SCT055 SCT070 OVC090 0 -12 40% -5 75.9 0.0
07 13:55 SE 22 G 31 16.09 Overcast SCT065 OVC080 0 -13 37% -5 75.9 0.0
07 13:35 E 20 G 31 16.09 Overcast OVC065 -3 -17 33% -9 75.92 0.0
07 13:15 E 19 G 28 16.09 Overcast OVC065 -13 -22 47% -21 75.92 0.0
07 12:55 Calm 16.09 Overcast OVC065 6 -8 36% 75.95 0.0
07 12:35 SW 7 16.09 Overcast OVC080 11 -1 44% 75.97 0.0
07 12:15 NW 9 16.09 Mostly Cloudy BKN080 10 -2 43% 9 76 0.0
07 11:55 Calm 16.09 Fair CLR -5 -21 28% 76.02 0.0
07 11:35 NW 11 16.09 Partly Cloudy SCT080 8 -2 50% 6 76.02 0.0
07 11:15 Calm 16.09 Mostly Cloudy BKN080 6 -5 46% 76.05 0.0
07 10:55 SW 6 16.09 Mostly Cloudy BKN080 6 -5 46% 76.07 0.0
07 10:35 SW 17 16.09 Fair CLR 5 -5 49% 2 76.1 0.0
07 10:15 NW 7 16.09 Partly Cloudy SCT070 SCT090 5 -4 53% 4 76.12 0.0
07 09:55 SW 17 G 26 16.09 Partly Cloudy SCT080 SCT100 7 -1 57% 4 76.12 0.0
07 09:35 W 13 16.09 Mostly Cloudy BKN090 6 0 66% 4 76.15 0.0
07 09:15 W 15 G 26 16.09 Overcast SCT036 BKN085 OVC090 5 0 70% 2 76.17 0.0
07 08:55 SW 19 16.09 Overcast SCT048 OVC055 5 -2 61% 2 76.17 0.0
07 08:35 SW 19 16.09 Overcast BKN055 OVC070 5 -2 61% 2 76.2 0.0
07 08:15 SW 9 16.09 Overcast SCT055 OVC080 6 -2 57% 4 76.17 0.0
07 07:55 W 11 16.09 Mostly Cloudy SCT070 BKN080 5 -3 57% 3 76.17 0.0
07 07:35 Calm 16.09 Partly Cloudy SCT060 SCT070 SCT080 3 -3 65% 76.15 0.0
07 07:20 W 15 16.09 Fair CLR 3 -2 70% -0 76.15 0.0
07 06:55 Calm 16.09 Fair CLR 2 -2 75% 76.15 0.0
07 06:35 Calm 16.09 Fair CLR 0 -3 80% 76.12 0.0
07 06:15 Calm 16.09 Fair CLR 0 -3 80% 76.12 0.0
07 05:55 Calm 16.09 Fair CLR 0 -3 80% 76.12 0.0
07 05:35 Calm 16.09 Fair CLR 0 -3 80% 76.12 0.0
07 05:15 Calm 16.09 Fair CLR 0 -3 80% 76.12 0.0
07 04:55 Calm 16.09 Fair CLR 0 -5 69% 76.1 0.0
07 04:35 Calm 16.09 Fair CLR 0 -4 75% 76.1 0.0
07 04:15 Calm 16.09 Fair CLR 0 -4 75% 76.1 0.0
07 03:55 Calm 16.09 Fair CLR 0 -4 75% 76.1 0.0
07 03:35 Calm 16.09 Fair CLR 0 -4 75% 76.12 0.0
07 03:15 Calm 16.09 Fair CLR 0 -5 69% 76.1 0.0
07 02:55 Calm 16.09 Fair CLR 1 -4 70% 76.1 0.0
07 02:35 Calm 16.09 Fair CLR 0 -5 69% 76.12 0.0
07 02:15 Calm 16.09 Fair CLR 0 -5 69% 76.12 0.0
07 01:55 Calm 16.09 Fair CLR 1 -5 65% 76.15 0.0
07 01:35 Calm 16.09 Fair CLR 0 -6 64% 76.15 0.0
07 01:15 Calm 16.09 Fair CLR 0 -7 60% 76.15 0.0
07 00:55 Calm 16.09 Fair CLR -4 -12 54% 76.17 0.0
07 00:35 Calm 16.09 Fair CLR -10 -20 44% 76.17 0.0
07 00:15 Calm 16.09 Fair CLR -3 -12 50% 76.17 0.0
06 23:55 Calm 16.09 Fair CLR -2 -11 51% 76.17 0.0
06 23:35 Calm 16.09 Fair CLR -6 -17 42% 76.17 0.0
06 23:15 W 6 16.09 Fair CLR 3 -5 56% 76.17 0.0
06 22:55 Calm 16.09 Fair CLR 0 -10 47% 76.2 0.0
06 22:35 NW 15 16.09 Partly Cloudy SCT060 5 -4 53% 2 76.2 0.0
06 22:15 W 15 16.09 Overcast OVC070 -22 -39 20% -31 76.2 0.0
06 21:55 W 20 G 26 16.09 Overcast OVC070 -16 -32 24% -25 76.17 0.0
06 21:35 W 24 G 33 16.09 Overcast OVC070 -15 -32 22% -24 76.15 0.0
06 21:15 NW 15 16.09 Overcast OVC070 -15 -32 22% -22 76.15 0.0
06 20:55 NW 17 16.09 Overcast OVC070 -17 -36 17% -25 76.12 0.0
06 20:35 NW 28 G 35 16.09 Overcast OVC070 -22 -45 10% -34 76.1 0.0
06 20:15 NW 13 16.09 Overcast BKN060 OVC070 -15 -33 20% -22 76.07 0.0
06 19:55 W 20 G 30 16.09 Overcast BKN060 OVC085 -14 -33 18% -22 76.07 0.0
06 19:35 NW 19 16.09 Overcast BKN070 OVC085 -13 -34 15% -21 76.05 0.0
06 19:15 W 22 G 30 16.09 Overcast SCT070 OVC085 -13 -35 14% -21 76.05 0.0
06 18:55 W 20 16.09 Overcast SCT070 OVC085 -13 -36 12% -21 76.02 0.0
06 18:35 W 26 G 31 16.09 Overcast OVC085 -12 -34 14% -21 76.02 0.0
06 18:15 W 22 G 31 16.09 Overcast OVC085 -11 -32 16% -19 76.02 0.0
06 17:55 W 20 16.09 Overcast SCT065 OVC085 -10 -31 16% -17 76.02 0.0
06 17:35 W 11 16.09 Overcast BKN065 OVC075 -12 -33 16% -17 76 0.0
06 17:15 W 19 16.09 Overcast OVC075 -12 -36 11% -19 76 0.0
06 16:55 W 17 16.09 Overcast OVC090 -9 -31 15% -15 76 0.0
06 16:35 NW 19 16.09 Overcast OVC090 -9 -31 15% -16 76 0.0
06 16:15 W 15 G 31 16.09 Overcast OVC080 -9 -31 15% -15 76 0.0
06 15:55 W 19 G 28 16.09 Overcast SCT080 OVC090 -10 -33 13% -17 76 0.0
06 15:35 W 15 16.09 Overcast SCT065 OVC080 -10 -32 15% -16 76 0.0
06 15:15 W 13 G 30 16.09 Overcast SCT065 OVC080 -11 -33 14% -17 76 0.0
06 14:55 W 20 16.09 Overcast SCT065 OVC080 -9 -31 15% -16 76.02 0.0
06 14:35 W 17 G 28 16.09 Overcast SCT065 OVC075 -9 -31 15% -15 76 0.0
06 14:15 W 20 G 28 16.09 Overcast SCT065 OVC075 -11 -34 13% -19 76.02 0.0
06 13:55 W 20 G 30 16.09 Overcast SCT070 OVC075 -17 -37 16% -26 76.02 0.0
06 13:35 W 15 16.09 Overcast SCT060 OVC080 0 0 0% 76 0.0
06 13:15 W 20 16.09 Overcast SCT075 OVC080 0 0 0% 76 0.0
06 12:55 W 17 G 26 16.09 Overcast OVC075 0 0 0% 76 0.0
06 12:35 W 19 G 28 16.09 Overcast SCT065 OVC075 0 0 0% 76.02 0.0
06 12:15 W 24 G 31 16.09 Mostly Cloudy BKN065 4 -12 30% -0 76.02 0.0
06 11:55 W 17 G 26 16.09 Mostly Cloudy SCT060 BKN075 2 -13 32% -2 76.05 0.0
06 11:35 W 20 16.09 Overcast OVC075 2 -12 35% -2 76.05 0.0
06 11:15 W 19 G 26 16.09 Overcast OVC075 2 -12 35% -2 76.05 0.0
06 10:55 W 13 G 28 16.09 Overcast OVC065 3 -11 35% 0 76.05 0.0
06 10:35 SW 15 16.09 Mostly Cloudy BKN065 0 -15 32% -4 76.05 0.0
06 10:15 W 17 G 28 16.09 Partly Cloudy SCT065 9 -4 40% 7 76.05 0.0
06 09:55 NW 13 16.09 Fair CLR 0 0 0% 76.05 0.0
06 09:35 W 13 16.09 Fair CLR -12 -26 30% -18 76.05 0.0
06 09:15 Calm 16.09 Partly Cloudy SCT065 7 -3 49% 76.02 0.0
06 08:35 W 15 16.09 Partly Cloudy SCT065 -3 -20 26% -8 76.02 0.0
06 08:15 Calm 16.09 Fair CLR 6 -3 53% 76.02 0.0
06 07:55 Calm 16.09 Partly Cloudy SCT075 2 -3 70% 76 0.0
06 07:35 Calm 16.09 Overcast OVC075 1 -3 75% 76 0.0
06 07:15 Calm 16.09 Overcast OVC075 0 -4 75% 76 0.0
06 06:55 Calm 16.09 Overcast OVC075 0 -5 69% 76 0.0
06 06:35 Calm 16.09 Overcast OVC075 0 -5 69% 75.97 0.0
06 06:15 Calm 16.09 Overcast OVC075 -1 -6 69% 75.97 0.0
06 05:55 Calm 16.09 Mostly Cloudy BKN075 -1 -6 69% 75.92 0.0
06 05:35 Calm 16.09 Partly Cloudy SCT075 -1 -6 69% 75.92 0.0
06 05:15 Calm 16.09 Fair CLR -1 -5 75% 75.92 0.0
06 04:55 Calm 16.09 Partly Cloudy SCT070 0 -5 69% 75.92 0.0
06 04:35 Calm 16.09 Partly Cloudy SCT070 0 -4 75% 75.92 0.0
06 04:15 Calm 16.09 Fair CLR 0 -3 80% 75.92 0.0
06 03:55 Calm 16.09 Fair CLR 0 -3 80% 75.92 0.0
06 03:35 Calm 16.09 Fair CLR 0 -4 75% 75.92 0.0
06 03:15 Calm 16.09 Fair CLR 0 -6 64% 75.9 0.0
06 02:55 Calm 16.09 Fair CLR 0 -5 69% 75.87 0.0
06 02:35 Calm 16.09 Fair CLR 1 -4 70% 75.87 0.0
06 02:15 Calm 16.09 Fair CLR 2 -3 70% 75.87 0.0
06 01:55 Calm 16.09 Fair CLR 2 -3 70% 75.9 0.0
06 01:35 Calm 16.09 Fair CLR 0 -8 55% 75.9 0.0
06 01:15 Calm 16.09 Fair CLR -1 -10 51% 75.9 0.0
06 00:55 Calm 16.09 Fair CLR 1 -7 56% 75.9 0.0
06 00:35 Calm 16.09 Partly Cloudy SCT085 5 -5 49% 75.92 0.0
06 00:15 Calm 16.09 Fair CLR 5 -5 49% 75.92 0.0
05 23:55 Calm 16.09 Fair CLR 3 -5 56% 75.92 0.0
05 23:35 Calm 16.09 Fair CLR 5 -5 49% 75.9 0.0
05 23:15 Calm 16.09 Fair CLR 5 -5 49% 75.87 0.0
05 22:55 Calm 16.09 Fair CLR -2 -16 34% 75.87 0.0
05 22:35 Calm 16.09 Fair CLR 5 -6 45% 75.87 0.0
05 22:15 N 13 16.09 Fair CLR 0 0 0% 75.87 0.0
05 21:55 N 13 16.09 Fair CLR 0 0 0% 75.84 0.0
05 21:35 N 17 16.09 Fair CLR 0 0 0% 75.82 0.0
05 21:20 N 26 16.09 Fair CLR 0 0 0% 75.79 0.0
05 20:55 NW 13 16.09 Fair CLR 0 0 0% 75.77 0.0
05 20:35 Calm 16.09 Fair CLR 0 0 0% 75.72 0.0
05 20:15 NW 17 16.09 Fair CLR 0 0 0% 75.72 0.0
05 19:55 NW 20 16.09 Fair CLR 0 0 0% 75.69 0.0
05 19:35 NW 19 16.09 Fair CLR 0 0 0% 75.69 0.0
05 19:15 W 19 16.09 Fair CLR 0 0 0% 75.67 0.0
05 18:55 N 15 16.09 Fair CLR 0 0 0% 75.67 0.0
05 18:35 NW 17 16.09 Fair CLR 0 0 0% 75.67 0.0
05 18:15 NW 26 G 35 16.09 Fair CLR 0 0 0% 75.67 0.0
05 17:55 W 19 G 33 16.09 Fair CLR 0 0 0% 75.67 0.0
05 17:35 W 20 G 35 16.09 Fair CLR 0 0 0% 75.64 0.0
05 17:15 NW 28 G 35 16.09 Fair CLR 0 0 0% 75.62 0.0
05 16:55 W 15 G 35 16.09 Fair CLR 0 0 0% 75.64 0.0
05 16:35 W 20 G 41 16.09 Fair CLR 0 0 0% 75.64 0.0
05 16:15 NW 28 G 39 16.09 Fair CLR 0 0 0% 75.64 0.0
05 15:55 NW 26 G 31 16.09 Fair CLR 0 0 0% 75.64 0.0
05 15:35 W 24 G 33 16.09 Fair CLR 0 0 0% 75.67 0.0
05 15:15 W 28 G 41 16.09 Fair CLR -12 -44 5% -21 75.67 0.0
05 14:55 W 22 G 43 16.09 Fair CLR 0 0 0% 75.69 0.0
05 14:35 W 20 G 35 16.09 Fair CLR 0 0 0% 75.69 0.0
05 14:15 W 22 16.09 Fair CLR -13 -43 6% -21 75.69 0.0
05 13:55 W 24 G 31 16.09 Fair CLR -13 -42 7% -22 75.67 0.0
05 13:35 W 20 G 33 16.09 Fair CLR -13 -41 7% -21 75.67 0.0
05 13:15 W 19 G 26 16.09 Fair CLR -13 -40 8% -21 75.64 0.0
05 12:55 W 26 G 39 16.09 Fair CLR -13 -42 7% -22 75.64 0.0
05 12:35 W 22 G 30 16.09 Fair CLR -12 -42 6% -20 75.67 0.0
05 12:15 W 20 G 43 16.09 Fair CLR -13 -38 10% -21 75.64 0.0
05 11:55 W 30 G 37 16.09 Fair CLR -13 -38 10% -23 75.62 0.0
05 11:35 W 24 G 33 16.09 Fair CLR 8 -6 37% 5 75.64 0.0
05 11:15 W 22 G 37 16.09 Fair CLR 11 -3 38% 75.64 0.0
05 10:55 W 22 G 35 16.09 Fair CLR 10 -3 40% 7 75.64 0.0
05 10:35 W 24 G 35 16.09 Fair CLR 10 -2 43% 7 75.64 0.0
05 10:15 W 30 G 37 16.09 Fair CLR 10 -3 40% 7 75.64 0.0
05 09:55 W 24 G 37 16.09 Fair CLR 10 -3 40% 7 75.64 0.0
05 09:35 W 22 G 33 16.09 Partly Cloudy SCT055 10 -3 40% 7 75.64 0.0
05 09:15 W 22 G 33 16.09 Fair CLR 9 -3 43% 6 75.69 0.0
05 08:55 W 22 G 30 16.09 Fair CLR 8 -3 46% 5 75.67 0.0
05 08:35 W 15 16.09 Fair CLR 7 -3 49% 5 75.67 0.0
05 08:15 Calm 16.09 Fair CLR 7 -2 53% 75.64 0.0
05 07:55 W 15 16.09 Fair CLR 7 -3 49% 5 75.67 0.0
Date Time (cdt) Wind (kph) Vis. (km) Weather Sky Cond. Air Dwpt Max. Min. Relative Humidity Wind Chill (°C) Heat Index (°C) altimeter (cm) sea level (mb) 1 hr 3 hr 6 hr
6 hour
Temperature (ºC) Pressure Precipitation (cm)